sensor_id;sensor_type;location;lat;lon;timestamp;temperature;humidity
23719;DHT22;43322;52.230;5.702;2023-07-30T00:00:53;15.80;99.90
23719;DHT22;43322;52.230;5.702;2023-07-30T00:03:20;15.80;99.90
23719;DHT22;43322;52.230;5.702;2023-07-30T00:05:55;15.70;99.90
23719;DHT22;43322;52.230;5.702;2023-07-30T00:08:22;15.70;99.90
23719;DHT22;43322;52.230;5.702;2023-07-30T00:10:49;15.70;99.90
23719;DHT22;43322;52.230;5.702;2023-07-30T00:13:16;15.70;99.90
23719;DHT22;43322;52.230;5.702;2023-07-30T00:15:45;15.60;99.90
23719;DHT22;43322;52.230;5.702;2023-07-30T00:18:12;15.60;99.90
23719;DHT22;43322;52.230;5.702;2023-07-30T00:20:39;15.60;99.90
23719;DHT22;43322;52.230;5.702;2023-07-30T00:23:07;15.50;99.90
23719;DHT22;43322;52.230;5.702;2023-07-30T00:25:33;15.50;99.90
23719;DHT22;43322;52.230;5.702;2023-07-30T00:28:00;15.50;99.90
23719;DHT22;43322;52.230;5.702;2023-07-30T00:30:27;15.50;99.90
23719;DHT22;43322;52.230;5.702;2023-07-30T00:32:54;15.50;99.90
23719;DHT22;43322;52.230;5.702;2023-07-30T00:35:20;15.40;99.90
23719;DHT22;43322;52.230;5.702;2023-07-30T00:37:47;15.30;99.90
23719;DHT22;43322;52.230;5.702;2023-07-30T00:40:15;15.40;99.90
23719;DHT22;43322;52.230;5.702;2023-07-30T00:42:42;15.30;99.90
23719;DHT22;43322;52.230;5.702;2023-07-30T00:45:09;15.40;99.90
23719;DHT22;43322;52.230;5.702;2023-07-30T00:47:37;15.40;99.90
23719;DHT22;43322;52.230;5.702;2023-07-30T00:50:05;15.30;99.90
23719;DHT22;43322;52.230;5.702;2023-07-30T00:52:32;15.30;99.90
23719;DHT22;43322;52.230;5.702;2023-07-30T00:55:02;15.30;99.90
23719;DHT22;43322;52.230;5.702;2023-07-30T00:57:30;15.30;99.90
23719;DHT22;43322;52.230;5.702;2023-07-30T00:59:57;15.20;99.90
23719;DHT22;43322;52.230;5.702;2023-07-30T01:02:24;15.20;99.90
23719;DHT22;43322;52.230;5.702;2023-07-30T01:04:52;15.20;99.90
23719;DHT22;43322;52.230;5.702;2023-07-30T01:07:18;15.20;99.90
23719;DHT22;43322;52.230;5.702;2023-07-30T01:09:45;15.30;99.90
23719;DHT22;43322;52.230;5.702;2023-07-30T01:12:13;15.20;99.90
23719;DHT22;43322;52.230;5.702;2023-07-30T01:14:42;15.20;99.90
23719;DHT22;43322;52.230;5.702;2023-07-30T01:17:11;15.20;99.90
23719;DHT22;43322;52.230;5.702;2023-07-30T01:19:38;15.20;99.90
23719;DHT22;43322;52.230;5.702;2023-07-30T01:22:06;15.20;99.90
23719;DHT22;43322;52.230;5.702;2023-07-30T01:24:32;15.20;99.90
23719;DHT22;43322;52.230;5.702;2023-07-30T01:27:01;15.20;99.90
23719;DHT22;43322;52.230;5.702;2023-07-30T01:29:32;15.10;99.90
23719;DHT22;43322;52.230;5.702;2023-07-30T01:32:04;15.10;99.90
23719;DHT22;43322;52.230;5.702;2023-07-30T01:34:34;15.20;99.90
23719;DHT22;43322;52.230;5.702;2023-07-30T01:37:01;15.10;99.90
23719;DHT22;43322;52.230;5.702;2023-07-30T01:39:29;15.20;99.90
23719;DHT22;43322;52.230;5.702;2023-07-30T01:41:57;15.20;99.90
23719;DHT22;43322;52.230;5.702;2023-07-30T01:44:24;15.10;99.90
23719;DHT22;43322;52.230;5.702;2023-07-30T01:46:50;15.10;99.90
23719;DHT22;43322;52.230;5.702;2023-07-30T01:49:17;15.00;99.90
23719;DHT22;43322;52.230;5.702;2023-07-30T01:51:43;15.00;99.90
23719;DHT22;43322;52.230;5.702;2023-07-30T01:54:11;15.10;99.90
23719;DHT22;43322;52.230;5.702;2023-07-30T01:56:39;15.20;99.90
23719;DHT22;43322;52.230;5.702;2023-07-30T01:59:06;15.20;99.90
23719;DHT22;43322;52.230;5.702;2023-07-30T02:01:32;15.20;99.90
23719;DHT22;43322;52.230;5.702;2023-07-30T02:03:59;15.20;99.90
23719;DHT22;43322;52.230;5.702;2023-07-30T02:06:26;15.30;99.90
23719;DHT22;43322;52.230;5.702;2023-07-30T02:08:52;15.30;99.90
23719;DHT22;43322;52.230;5.702;2023-07-30T02:11:19;15.30;99.90
23719;DHT22;43322;52.230;5.702;2023-07-30T02:13:47;15.40;99.90
23719;DHT22;43322;52.230;5.702;2023-07-30T02:16:13;15.40;99.90
23719;DHT22;43322;52.230;5.702;2023-07-30T02:18:40;15.20;99.90
23719;DHT22;43322;52.230;5.702;2023-07-30T02:21:07;15.40;99.90
23719;DHT22;43322;52.230;5.702;2023-07-30T02:23:33;15.40;99.90
23719;DHT22;43322;52.230;5.702;2023-07-30T02:26:00;15.40;99.90
23719;DHT22;43322;52.230;5.702;2023-07-30T02:28:27;15.40;99.90
23719;DHT22;43322;52.230;5.702;2023-07-30T02:30:55;15.40;99.90
23719;DHT22;43322;52.230;5.702;2023-07-30T02:33:21;15.40;99.90
23719;DHT22;43322;52.230;5.702;2023-07-30T02:35:48;15.50;99.90
23719;DHT22;43322;52.230;5.702;2023-07-30T02:38:15;15.50;99.90
23719;DHT22;43322;52.230;5.702;2023-07-30T02:40:41;15.40;99.90
23719;DHT22;43322;52.230;5.702;2023-07-30T02:43:08;15.50;99.90
23719;DHT22;43322;52.230;5.702;2023-07-30T02:45:35;15.40;99.90
23719;DHT22;43322;52.230;5.702;2023-07-30T02:48:03;15.40;99.90
23719;DHT22;43322;52.230;5.702;2023-07-30T02:50:30;15.40;99.90
23719;DHT22;43322;52.230;5.702;2023-07-30T02:52:56;15.40;99.90
23719;DHT22;43322;52.230;5.702;2023-07-30T02:55:23;15.40;99.90
23719;DHT22;43322;52.230;5.702;2023-07-30T02:57:50;15.40;99.90
23719;DHT22;43322;52.230;5.702;2023-07-30T03:00:17;15.50;99.90
23719;DHT22;43322;52.230;5.702;2023-07-30T03:02:43;15.50;99.90
23719;DHT22;43322;52.230;5.702;2023-07-30T03:05:11;15.50;99.90
23719;DHT22;43322;52.230;5.702;2023-07-30T03:07:38;15.50;99.90
23719;DHT22;43322;52.230;5.702;2023-07-30T03:10:05;15.50;99.90
23719;DHT22;43322;52.230;5.702;2023-07-30T03:12:32;15.50;99.90
23719;DHT22;43322;52.230;5.702;2023-07-30T03:14:59;15.50;99.90
23719;DHT22;43322;52.230;5.702;2023-07-30T03:17:26;15.50;99.90
23719;DHT22;43322;52.230;5.702;2023-07-30T03:19:52;15.40;99.90
23719;DHT22;43322;52.230;5.702;2023-07-30T03:22:20;15.50;99.90
23719;DHT22;43322;52.230;5.702;2023-07-30T03:24:47;15.50;99.90
23719;DHT22;43322;52.230;5.702;2023-07-30T03:27:14;15.50;99.90
23719;DHT22;43322;52.230;5.702;2023-07-30T03:29:40;15.50;99.90
23719;DHT22;43322;52.230;5.702;2023-07-30T03:32:07;15.50;99.90
23719;DHT22;43322;52.230;5.702;2023-07-30T03:34:34;15.40;99.90
23719;DHT22;43322;52.230;5.702;2023-07-30T03:37:01;15.40;99.90
23719;DHT22;43322;52.230;5.702;2023-07-30T03:39:29;15.40;99.90
23719;DHT22;43322;52.230;5.702;2023-07-30T03:41:55;15.40;99.90
23719;DHT22;43322;52.230;5.702;2023-07-30T03:44:22;15.30;99.90
23719;DHT22;43322;52.230;5.702;2023-07-30T03:46:49;15.40;99.90
23719;DHT22;43322;52.230;5.702;2023-07-30T03:49:15;15.30;99.90
23719;DHT22;43322;52.230;5.702;2023-07-30T03:51:42;15.30;99.90
23719;DHT22;43322;52.230;5.702;2023-07-30T03:54:09;15.30;99.90
23719;DHT22;43322;52.230;5.702;2023-07-30T03:56:36;15.30;99.90
23719;DHT22;43322;52.230;5.702;2023-07-30T03:59:03;15.20;99.90
23719;DHT22;43322;52.230;5.702;2023-07-30T04:01:30;15.10;99.90
23719;DHT22;43322;52.230;5.702;2023-07-30T04:03:57;15.10;99.90
23719;DHT22;43322;52.230;5.702;2023-07-30T04:06:23;15.10;99.90
23719;DHT22;43322;52.230;5.702;2023-07-30T04:08:50;15.10;99.90
23719;DHT22;43322;52.230;5.702;2023-07-30T04:11:17;15.10;99.90
23719;DHT22;43322;52.230;5.702;2023-07-30T04:13:45;15.10;99.90
23719;DHT22;43322;52.230;5.702;2023-07-30T04:16:12;15.10;99.90
23719;DHT22;43322;52.230;5.702;2023-07-30T04:18:38;15.00;99.90
23719;DHT22;43322;52.230;5.702;2023-07-30T04:21:05;15.00;99.90
23719;DHT22;43322;52.230;5.702;2023-07-30T04:23:32;15.00;99.90
23719;DHT22;43322;52.230;5.702;2023-07-30T04:25:58;15.00;99.90
23719;DHT22;43322;52.230;5.702;2023-07-30T04:28:25;14.70;99.90
23719;DHT22;43322;52.230;5.702;2023-07-30T04:30:53;15.10;99.90
23719;DHT22;43322;52.230;5.702;2023-07-30T04:33:19;15.10;99.90
23719;DHT22;43322;52.230;5.702;2023-07-30T04:35:46;15.20;99.90
23719;DHT22;43322;52.230;5.702;2023-07-30T04:38:13;15.30;99.90
23719;DHT22;43322;52.230;5.702;2023-07-30T04:40:40;15.30;99.90
23719;DHT22;43322;52.230;5.702;2023-07-30T04:43:06;15.30;99.90
23719;DHT22;43322;52.230;5.702;2023-07-30T04:45:33;15.20;99.90
23719;DHT22;43322;52.230;5.702;2023-07-30T04:48:01;15.30;99.90
23719;DHT22;43322;52.230;5.702;2023-07-30T04:50:28;15.30;99.90
23719;DHT22;43322;52.230;5.702;2023-07-30T04:52:54;15.40;99.90
23719;DHT22;43322;52.230;5.702;2023-07-30T04:55:21;15.40;99.90
23719;DHT22;43322;52.230;5.702;2023-07-30T04:57:48;15.40;99.90
23719;DHT22;43322;52.230;5.702;2023-07-30T05:00:14;15.50;99.90
23719;DHT22;43322;52.230;5.702;2023-07-30T05:02:41;15.50;99.90
23719;DHT22;43322;52.230;5.702;2023-07-30T05:05:09;15.50;99.90
23719;DHT22;43322;52.230;5.702;2023-07-30T05:07:36;15.60;99.90
23719;DHT22;43322;52.230;5.702;2023-07-30T05:10:03;15.60;99.90
23719;DHT22;43322;52.230;5.702;2023-07-30T05:12:32;15.60;99.90
23719;DHT22;43322;52.230;5.702;2023-07-30T05:14:58;15.60;99.90
23719;DHT22;43322;52.230;5.702;2023-07-30T05:17:25;15.60;99.90
23719;DHT22;43322;52.230;5.702;2023-07-30T05:19:51;15.70;99.90
23719;DHT22;43322;52.230;5.702;2023-07-30T05:22:19;15.70;99.90
23719;DHT22;43322;52.230;5.702;2023-07-30T05:24:46;15.70;99.90
23719;DHT22;43322;52.230;5.702;2023-07-30T05:27:13;15.80;99.90
23719;DHT22;43322;52.230;5.702;2023-07-30T05:29:40;15.80;99.90
23719;DHT22;43322;52.230;5.702;2023-07-30T05:32:07;15.80;99.90
23719;DHT22;43322;52.230;5.702;2023-07-30T05:34:34;15.90;99.90
23719;DHT22;43322;52.230;5.702;2023-07-30T05:37:01;15.90;99.90
23719;DHT22;43322;52.230;5.702;2023-07-30T05:39:29;16.00;99.90
23719;DHT22;43322;52.230;5.702;2023-07-30T05:41:55;16.10;99.90
23719;DHT22;43322;52.230;5.702;2023-07-30T05:44:22;16.00;99.90
23719;DHT22;43322;52.230;5.702;2023-07-30T05:46:49;16.10;99.90
23719;DHT22;43322;52.230;5.702;2023-07-30T05:49:15;16.10;99.90
23719;DHT22;43322;52.230;5.702;2023-07-30T05:51:42;16.20;99.90
23719;DHT22;43322;52.230;5.702;2023-07-30T05:54:08;16.30;99.90
23719;DHT22;43322;52.230;5.702;2023-07-30T05:56:36;16.30;99.90
23719;DHT22;43322;52.230;5.702;2023-07-30T05:59:03;16.40;99.90
23719;DHT22;43322;52.230;5.702;2023-07-30T06:01:30;16.40;99.90
23719;DHT22;43322;52.230;5.702;2023-07-30T06:03:56;16.50;99.90
23719;DHT22;43322;52.230;5.702;2023-07-30T06:06:23;16.50;99.90
23719;DHT22;43322;52.230;5.702;2023-07-30T06:08:52;16.60;99.90
23719;DHT22;43322;52.230;5.702;2023-07-30T06:11:19;16.70;99.90
23719;DHT22;43322;52.230;5.702;2023-07-30T06:13:47;16.90;99.90
23719;DHT22;43322;52.230;5.702;2023-07-30T06:16:14;16.90;99.90
23719;DHT22;43322;52.230;5.702;2023-07-30T06:18:41;16.90;99.90
23719;DHT22;43322;52.230;5.702;2023-07-30T06:21:07;16.90;99.90
23719;DHT22;43322;52.230;5.702;2023-07-30T06:23:34;16.90;99.90
23719;DHT22;43322;52.230;5.702;2023-07-30T06:26:01;17.00;99.90
23719;DHT22;43322;52.230;5.702;2023-07-30T06:28:27;17.10;99.90
23719;DHT22;43322;52.230;5.702;2023-07-30T06:30:55;17.10;99.90
23719;DHT22;43322;52.230;5.702;2023-07-30T06:33:25;17.10;99.90
23719;DHT22;43322;52.230;5.702;2023-07-30T06:35:52;17.20;99.90
23719;DHT22;43322;52.230;5.702;2023-07-30T06:38:18;17.10;99.90
23719;DHT22;43322;52.230;5.702;2023-07-30T06:40:46;17.00;99.90
23719;DHT22;43322;52.230;5.702;2023-07-30T06:43:12;17.10;99.90
23719;DHT22;43322;52.230;5.702;2023-07-30T06:45:39;17.20;99.90
23719;DHT22;43322;52.230;5.702;2023-07-30T06:48:07;17.30;99.90
23719;DHT22;43322;52.230;5.702;2023-07-30T06:50:34;17.30;99.90
23719;DHT22;43322;52.230;5.702;2023-07-30T06:53:00;17.30;99.90
23719;DHT22;43322;52.230;5.702;2023-07-30T06:55:27;17.20;99.90
23719;DHT22;43322;52.230;5.702;2023-07-30T06:57:54;17.20;99.90
23719;DHT22;43322;52.230;5.702;2023-07-30T07:00:20;17.30;99.90
23719;DHT22;43322;52.230;5.702;2023-07-30T07:02:48;17.20;99.90
23719;DHT22;43322;52.230;5.702;2023-07-30T07:05:16;17.00;99.90
23719;DHT22;43322;52.230;5.702;2023-07-30T07:07:43;17.20;99.90
23719;DHT22;43322;52.230;5.702;2023-07-30T07:10:10;16.90;99.90
23719;DHT22;43322;52.230;5.702;2023-07-30T07:12:37;17.20;99.90
23719;DHT22;43322;52.230;5.702;2023-07-30T07:15:05;17.20;99.90
23719;DHT22;43322;52.230;5.702;2023-07-30T07:17:32;17.30;99.90
23719;DHT22;43322;52.230;5.702;2023-07-30T07:20:00;17.40;99.90
23719;DHT22;43322;52.230;5.702;2023-07-30T07:22:30;17.50;99.90
23719;DHT22;43322;52.230;5.702;2023-07-30T07:24:57;17.40;99.90
23719;DHT22;43322;52.230;5.702;2023-07-30T07:27:24;17.40;99.90
23719;DHT22;43322;52.230;5.702;2023-07-30T07:29:51;17.40;99.90
23719;DHT22;43322;52.230;5.702;2023-07-30T07:32:17;17.30;99.90
23719;DHT22;43322;52.230;5.702;2023-07-30T07:34:46;17.30;99.90
23719;DHT22;43322;52.230;5.702;2023-07-30T07:37:13;17.40;99.90
23719;DHT22;43322;52.230;5.702;2023-07-30T07:39:42;17.50;99.90
23719;DHT22;43322;52.230;5.702;2023-07-30T07:42:09;17.70;99.90
23719;DHT22;43322;52.230;5.702;2023-07-30T07:44:36;17.90;99.90
23719;DHT22;43322;52.230;5.702;2023-07-30T07:47:03;17.90;99.90
23719;DHT22;43322;52.230;5.702;2023-07-30T07:49:29;18.00;99.90
23719;DHT22;43322;52.230;5.702;2023-07-30T07:51:56;18.10;99.90
23719;DHT22;43322;52.230;5.702;2023-07-30T07:54:23;18.10;99.90
23719;DHT22;43322;52.230;5.702;2023-07-30T07:56:51;18.30;99.90
23719;DHT22;43322;52.230;5.702;2023-07-30T07:59:17;18.50;99.90
23719;DHT22;43322;52.230;5.702;2023-07-30T08:01:44;18.50;99.90
23719;DHT22;43322;52.230;5.702;2023-07-30T08:04:11;18.60;99.90
23719;DHT22;43322;52.230;5.702;2023-07-30T08:06:37;18.60;99.90
23719;DHT22;43322;52.230;5.702;2023-07-30T08:09:04;19.00;99.90
23719;DHT22;43322;52.230;5.702;2023-07-30T08:11:31;18.90;99.90
23719;DHT22;43322;52.230;5.702;2023-07-30T08:13:59;18.70;99.90
23719;DHT22;43322;52.230;5.702;2023-07-30T08:16:25;18.60;99.90
23719;DHT22;43322;52.230;5.702;2023-07-30T08:18:52;18.50;99.90
23719;DHT22;43322;52.230;5.702;2023-07-30T08:21:20;18.50;99.90
23719;DHT22;43322;52.230;5.702;2023-07-30T08:23:47;18.30;99.90
23719;DHT22;43322;52.230;5.702;2023-07-30T08:26:14;18.30;99.90
23719;DHT22;43322;52.230;5.702;2023-07-30T08:28:40;18.40;99.90
23719;DHT22;43322;52.230;5.702;2023-07-30T08:31:08;18.50;99.90
23719;DHT22;43322;52.230;5.702;2023-07-30T08:33:35;18.50;99.90
23719;DHT22;43322;52.230;5.702;2023-07-30T08:36:04;18.30;99.90
23719;DHT22;43322;52.230;5.702;2023-07-30T08:38:31;18.10;99.90
23719;DHT22;43322;52.230;5.702;2023-07-30T08:40:57;18.10;99.90
23719;DHT22;43322;52.230;5.702;2023-07-30T08:43:24;18.00;99.90
23719;DHT22;43322;52.230;5.702;2023-07-30T08:45:51;17.90;99.90
23719;DHT22;43322;52.230;5.702;2023-07-30T08:48:19;17.80;99.90
23719;DHT22;43322;52.230;5.702;2023-07-30T08:50:47;17.70;99.90
23719;DHT22;43322;52.230;5.702;2023-07-30T08:53:14;17.60;99.90
23719;DHT22;43322;52.230;5.702;2023-07-30T08:55:41;17.50;99.90
23719;DHT22;43322;52.230;5.702;2023-07-30T08:58:09;17.40;99.90
23719;DHT22;43322;52.230;5.702;2023-07-30T09:00:38;17.40;99.90
23719;DHT22;43322;52.230;5.702;2023-07-30T09:03:07;17.30;99.90
23719;DHT22;43322;52.230;5.702;2023-07-30T09:05:37;17.80;99.90
23719;DHT22;43322;52.230;5.702;2023-07-30T09:08:04;17.40;99.90
23719;DHT22;43322;52.230;5.702;2023-07-30T09:10:31;17.50;99.90
23719;DHT22;43322;52.230;5.702;2023-07-30T09:12:57;17.60;99.90
23719;DHT22;43322;52.230;5.702;2023-07-30T09:15:31;17.70;99.90
23719;DHT22;43322;52.230;5.702;2023-07-30T09:17:59;17.80;99.90
23719;DHT22;43322;52.230;5.702;2023-07-30T09:20:26;17.90;99.90
23719;DHT22;43322;52.230;5.702;2023-07-30T09:22:56;18.10;99.90
23719;DHT22;43322;52.230;5.702;2023-07-30T09:25:22;18.40;99.90
23719;DHT22;43322;52.230;5.702;2023-07-30T09:27:50;19.00;99.90
23719;DHT22;43322;52.230;5.702;2023-07-30T09:30:22;19.30;99.90
23719;DHT22;43322;52.230;5.702;2023-07-30T09:32:51;19.10;99.90
23719;DHT22;43322;52.230;5.702;2023-07-30T09:35:18;18.90;99.90
23719;DHT22;43322;52.230;5.702;2023-07-30T09:37:45;18.90;99.90
23719;DHT22;43322;52.230;5.702;2023-07-30T09:40:14;18.70;99.90
23719;DHT22;43322;52.230;5.702;2023-07-30T09:42:43;18.90;99.90
23719;DHT22;43322;52.230;5.702;2023-07-30T09:45:17;18.90;99.90
23719;DHT22;43322;52.230;5.702;2023-07-30T09:47:46;18.90;99.90
23719;DHT22;43322;52.230;5.702;2023-07-30T09:50:14;19.00;99.90
23719;DHT22;43322;52.230;5.702;2023-07-30T09:52:41;19.10;99.90
23719;DHT22;43322;52.230;5.702;2023-07-30T09:55:09;19.20;99.90
23719;DHT22;43322;52.230;5.702;2023-07-30T09:57:37;19.00;99.90
23719;DHT22;43322;52.230;5.702;2023-07-30T10:00:06;18.80;99.90
23719;DHT22;43322;52.230;5.702;2023-07-30T10:02:37;18.70;99.90
23719;DHT22;43322;52.230;5.702;2023-07-30T10:05:07;18.80;99.90
23719;DHT22;43322;52.230;5.702;2023-07-30T10:07:35;19.20;99.90
23719;DHT22;43322;52.230;5.702;2023-07-30T10:10:03;20.00;99.90
23719;DHT22;43322;52.230;5.702;2023-07-30T10:12:32;20.80;99.90
23719;DHT22;43322;52.230;5.702;2023-07-30T10:15:02;21.60;99.90
23719;DHT22;43322;52.230;5.702;2023-07-30T10:17:32;22.20;99.90
23719;DHT22;43322;52.230;5.702;2023-07-30T10:20:19;22.00;99.90
23719;DHT22;43322;52.230;5.702;2023-07-30T10:22:46;23.00;99.90
23719;DHT22;43322;52.230;5.702;2023-07-30T10:25:13;22.90;99.90
23719;DHT22;43322;52.230;5.702;2023-07-30T10:27:40;22.20;99.90
23719;DHT22;43322;52.230;5.702;2023-07-30T10:30:11;21.70;99.90
23719;DHT22;43322;52.230;5.702;2023-07-30T10:32:39;21.50;99.90
23719;DHT22;43322;52.230;5.702;2023-07-30T10:35:06;20.80;99.90
23719;DHT22;43322;52.230;5.702;2023-07-30T10:37:32;20.50;99.90
23719;DHT22;43322;52.230;5.702;2023-07-30T10:39:59;20.30;99.90
23719;DHT22;43322;52.230;5.702;2023-07-30T10:42:33;20.10;99.90
23719;DHT22;43322;52.230;5.702;2023-07-30T10:45:00;20.10;99.90
23719;DHT22;43322;52.230;5.702;2023-07-30T10:47:28;21.30;99.90
23719;DHT22;43322;52.230;5.702;2023-07-30T10:50:00;21.50;99.90
23719;DHT22;43322;52.230;5.702;2023-07-30T10:52:28;21.40;99.90
23719;DHT22;43322;52.230;5.702;2023-07-30T10:54:59;20.60;99.90
23719;DHT22;43322;52.230;5.702;2023-07-30T10:57:30;20.20;99.90
23719;DHT22;43322;52.230;5.702;2023-07-30T10:59:57;19.90;99.90
23719;DHT22;43322;52.230;5.702;2023-07-30T11:02:23;19.60;99.90
23719;DHT22;43322;52.230;5.702;2023-07-30T11:04:51;20.80;99.90
23719;DHT22;43322;52.230;5.702;2023-07-30T11:07:18;22.50;99.90
23719;DHT22;43322;52.230;5.702;2023-07-30T11:09:45;24.00;99.90
23719;DHT22;43322;52.230;5.702;2023-07-30T11:12:11;23.50;99.90
23719;DHT22;43322;52.230;5.702;2023-07-30T11:14:40;22.50;99.90
23719;DHT22;43322;52.230;5.702;2023-07-30T11:17:06;21.60;99.90
23719;DHT22;43322;52.230;5.702;2023-07-30T11:19:33;20.60;99.90
23719;DHT22;43322;52.230;5.702;2023-07-30T11:22:01;20.10;99.90
23719;DHT22;43322;52.230;5.702;2023-07-30T11:24:35;20.20;99.90
23719;DHT22;43322;52.230;5.702;2023-07-30T11:27:02;20.70;99.90
23719;DHT22;43322;52.230;5.702;2023-07-30T11:29:29;20.80;99.90
23719;DHT22;43322;52.230;5.702;2023-07-30T11:31:57;20.70;99.90
23719;DHT22;43322;52.230;5.702;2023-07-30T11:34:25;20.70;99.90
23719;DHT22;43322;52.230;5.702;2023-07-30T11:36:52;20.80;99.90
23719;DHT22;43322;52.230;5.702;2023-07-30T11:39:22;20.20;99.90
23719;DHT22;43322;52.230;5.702;2023-07-30T11:41:50;20.00;99.90
23719;DHT22;43322;52.230;5.702;2023-07-30T11:44:30;19.80;99.90
23719;DHT22;43322;52.230;5.702;2023-07-30T11:46:57;19.70;99.90
23719;DHT22;43322;52.230;5.702;2023-07-30T11:49:23;19.60;99.90
23719;DHT22;43322;52.230;5.702;2023-07-30T11:51:50;19.60;99.90
23719;DHT22;43322;52.230;5.702;2023-07-30T11:54:22;19.80;99.90
23719;DHT22;43322;52.230;5.702;2023-07-30T11:56:54;19.60;99.90
23719;DHT22;43322;52.230;5.702;2023-07-30T11:59:20;19.50;99.90
23719;DHT22;43322;52.230;5.702;2023-07-30T12:01:47;19.60;99.90
23719;DHT22;43322;52.230;5.702;2023-07-30T12:04:14;20.40;99.90
23719;DHT22;43322;52.230;5.702;2023-07-30T12:06:41;22.00;99.90
23719;DHT22;43322;52.230;5.702;2023-07-30T12:09:12;23.50;99.90
23719;DHT22;43322;52.230;5.702;2023-07-30T12:11:46;24.20;99.90
23719;DHT22;43322;52.230;5.702;2023-07-30T12:14:13;25.40;99.90
23719;DHT22;43322;52.230;5.702;2023-07-30T12:16:39;25.40;99.90
23719;DHT22;43322;52.230;5.702;2023-07-30T12:19:06;24.60;99.90
23719;DHT22;43322;52.230;5.702;2023-07-30T12:21:33;23.50;99.90
23719;DHT22;43322;52.230;5.702;2023-07-30T12:23:59;23.40;99.90
23719;DHT22;43322;52.230;5.702;2023-07-30T12:26:26;23.60;99.90
23719;DHT22;43322;52.230;5.702;2023-07-30T12:28:54;24.20;99.90
23719;DHT22;43322;52.230;5.702;2023-07-30T12:31:20;24.50;99.90
23719;DHT22;43322;52.230;5.702;2023-07-30T12:33:47;24.50;99.90
23719;DHT22;43322;52.230;5.702;2023-07-30T12:36:14;23.80;99.90
23719;DHT22;43322;52.230;5.702;2023-07-30T12:38:40;22.70;99.90
23719;DHT22;43322;52.230;5.702;2023-07-30T12:41:07;21.80;99.90
23719;DHT22;43322;52.230;5.702;2023-07-30T12:43:34;21.40;99.90
23719;DHT22;43322;52.230;5.702;2023-07-30T12:46:02;21.60;99.90
23719;DHT22;43322;52.230;5.702;2023-07-30T12:48:28;21.20;99.90
23719;DHT22;43322;52.230;5.702;2023-07-30T12:50:55;21.10;99.90
23719;DHT22;43322;52.230;5.702;2023-07-30T12:53:22;22.50;99.90
23719;DHT22;43322;52.230;5.702;2023-07-30T12:55:48;23.80;99.90
23719;DHT22;43322;52.230;5.702;2023-07-30T12:58:17;23.40;99.90
23719;DHT22;43322;52.230;5.702;2023-07-30T13:00:43;22.40;99.90
23719;DHT22;43322;52.230;5.702;2023-07-30T13:03:11;21.80;99.90
23719;DHT22;43322;52.230;5.702;2023-07-30T13:05:38;21.90;99.90
23719;DHT22;43322;52.230;5.702;2023-07-30T13:08:04;22.90;99.90
23719;DHT22;43322;52.230;5.702;2023-07-30T13:10:31;24.10;99.90
23719;DHT22;43322;52.230;5.702;2023-07-30T13:12:58;23.90;99.90
23719;DHT22;43322;52.230;5.702;2023-07-30T13:15:24;23.20;99.90
23719;DHT22;43322;52.230;5.702;2023-07-30T13:17:51;22.80;99.90
23719;DHT22;43322;52.230;5.702;2023-07-30T13:20:19;22.90;99.90
23719;DHT22;43322;52.230;5.702;2023-07-30T13:22:46;24.20;99.90
23719;DHT22;43322;52.230;5.702;2023-07-30T13:25:13;24.60;99.90
23719;DHT22;43322;52.230;5.702;2023-07-30T13:27:39;24.80;99.90
23719;DHT22;43322;52.230;5.702;2023-07-30T13:30:07;25.50;99.90
23719;DHT22;43322;52.230;5.702;2023-07-30T13:32:34;24.70;99.90
23719;DHT22;43322;52.230;5.702;2023-07-30T13:35:00;23.70;99.90
23719;DHT22;43322;52.230;5.702;2023-07-30T13:37:28;23.00;99.90
23719;DHT22;43322;52.230;5.702;2023-07-30T13:39:55;22.30;99.90
23719;DHT22;43322;52.230;5.702;2023-07-30T13:42:21;21.60;99.90
23719;DHT22;43322;52.230;5.702;2023-07-30T13:44:48;21.20;99.90
23719;DHT22;43322;52.230;5.702;2023-07-30T13:47:15;20.90;99.90
23719;DHT22;43322;52.230;5.702;2023-07-30T13:49:41;20.80;99.90
23719;DHT22;43322;52.230;5.702;2023-07-30T13:52:08;20.60;99.90
23719;DHT22;43322;52.230;5.702;2023-07-30T13:54:36;20.30;99.90
23719;DHT22;43322;52.230;5.702;2023-07-30T13:57:03;20.30;99.90
23719;DHT22;43322;52.230;5.702;2023-07-30T13:59:30;20.80;99.90
23719;DHT22;43322;52.230;5.702;2023-07-30T14:01:57;21.20;99.90
23719;DHT22;43322;52.230;5.702;2023-07-30T14:04:23;21.10;99.90
23719;DHT22;43322;52.230;5.702;2023-07-30T14:06:50;20.80;99.90
23719;DHT22;43322;52.230;5.702;2023-07-30T14:09:17;20.50;99.90
23719;DHT22;43322;52.230;5.702;2023-07-30T14:11:45;20.40;99.90
23719;DHT22;43322;52.230;5.702;2023-07-30T14:14:12;20.30;99.90
23719;DHT22;43322;52.230;5.702;2023-07-30T14:16:38;20.30;99.90
23719;DHT22;43322;52.230;5.702;2023-07-30T14:19:05;20.70;99.90
23719;DHT22;43322;52.230;5.702;2023-07-30T14:21:32;21.20;99.90
23719;DHT22;43322;52.230;5.702;2023-07-30T14:23:59;21.60;99.90
23719;DHT22;43322;52.230;5.702;2023-07-30T14:26:25;21.80;99.90
23719;DHT22;43322;52.230;5.702;2023-07-30T14:28:53;21.60;99.90
23719;DHT22;43322;52.230;5.702;2023-07-30T14:31:20;21.50;99.90
23719;DHT22;43322;52.230;5.702;2023-07-30T14:33:47;21.40;99.90
23719;DHT22;43322;52.230;5.702;2023-07-30T14:36:13;21.10;99.90
23719;DHT22;43322;52.230;5.702;2023-07-30T14:38:40;20.90;99.90
23719;DHT22;43322;52.230;5.702;2023-07-30T14:41:07;20.90;99.90
23719;DHT22;43322;52.230;5.702;2023-07-30T14:43:34;20.80;99.90
23719;DHT22;43322;52.230;5.702;2023-07-30T14:46:02;21.20;99.90
23719;DHT22;43322;52.230;5.702;2023-07-30T14:48:29;21.70;99.90
23719;DHT22;43322;52.230;5.702;2023-07-30T14:50:55;21.60;99.90
23719;DHT22;43322;52.230;5.702;2023-07-30T14:53:22;21.20;99.90
23719;DHT22;43322;52.230;5.702;2023-07-30T14:55:49;21.20;99.90
23719;DHT22;43322;52.230;5.702;2023-07-30T14:58:15;20.80;99.90
23719;DHT22;43322;52.230;5.702;2023-07-30T15:00:42;20.70;99.90
23719;DHT22;43322;52.230;5.702;2023-07-30T15:03:10;20.30;99.90
23719;DHT22;43322;52.230;5.702;2023-07-30T15:05:37;19.90;99.90
23719;DHT22;43322;52.230;5.702;2023-07-30T15:08:04;19.70;99.90
23719;DHT22;43322;52.230;5.702;2023-07-30T15:10:30;19.50;99.90
23719;DHT22;43322;52.230;5.702;2023-07-30T15:12:57;19.40;99.90
23719;DHT22;43322;52.230;5.702;2023-07-30T15:15:24;19.30;99.90
23719;DHT22;43322;52.230;5.702;2023-07-30T15:17:50;19.30;99.90
23719;DHT22;43322;52.230;5.702;2023-07-30T15:20:19;19.30;99.90
23719;DHT22;43322;52.230;5.702;2023-07-30T15:22:45;19.40;99.90
23719;DHT22;43322;52.230;5.702;2023-07-30T15:25:12;19.30;99.90
23719;DHT22;43322;52.230;5.702;2023-07-30T15:27:39;19.40;99.90
23719;DHT22;43322;52.230;5.702;2023-07-30T15:30:06;19.50;99.90